sensor_id;sensor_type;location;lat;lon;timestamp;P1;durP1;ratioP1;P2;durP2;ratioP2
15412;SDS011;7805;49.554;7.632;2024-01-15T00:01:45;39.87;;;16.00;;
15412;SDS011;7805;49.554;7.632;2024-01-15T00:04:11;37.30;;;17.47;;
15412;SDS011;7805;49.554;7.632;2024-01-15T00:06:36;39.27;;;14.67;;
15412;SDS011;7805;49.554;7.632;2024-01-15T00:09:02;38.63;;;15.10;;
15412;SDS011;7805;49.554;7.632;2024-01-15T00:11:28;35.33;;;14.83;;
15412;SDS011;7805;49.554;7.632;2024-01-15T00:13:53;35.50;;;15.10;;
15412;SDS011;7805;49.554;7.632;2024-01-15T00:16:19;32.93;;;12.50;;
15412;SDS011;7805;49.554;7.632;2024-01-15T00:18:44;31.33;;;14.43;;
15412;SDS011;7805;49.554;7.632;2024-01-15T00:21:10;32.57;;;13.87;;
15412;SDS011;7805;49.554;7.632;2024-01-15T00:23:35;34.43;;;12.83;;
15412;SDS011;7805;49.554;7.632;2024-01-15T00:26:01;36.80;;;14.07;;
15412;SDS011;7805;49.554;7.632;2024-01-15T00:28:27;32.17;;;14.77;;
15412;SDS011;7805;49.554;7.632;2024-01-15T00:30:52;40.33;;;16.10;;
15412;SDS011;7805;49.554;7.632;2024-01-15T00:33:18;34.43;;;13.97;;
15412;SDS011;7805;49.554;7.632;2024-01-15T00:35:43;32.90;;;15.03;;
15412;SDS011;7805;49.554;7.632;2024-01-15T00:38:09;36.20;;;14.40;;
15412;SDS011;7805;49.554;7.632;2024-01-15T00:40:35;36.23;;;16.20;;
15412;SDS011;7805;49.554;7.632;2024-01-15T00:43:00;39.47;;;16.27;;
15412;SDS011;7805;49.554;7.632;2024-01-15T00:45:27;35.23;;;14.93;;
15412;SDS011;7805;49.554;7.632;2024-01-15T00:47:52;26.20;;;10.33;;
15412;SDS011;7805;49.554;7.632;2024-01-15T00:50:18;35.17;;;16.70;;
15412;SDS011;7805;49.554;7.632;2024-01-15T00:52:43;41.40;;;17.33;;
15412;SDS011;7805;49.554;7.632;2024-01-15T00:55:09;44.33;;;19.47;;
15412;SDS011;7805;49.554;7.632;2024-01-15T00:57:35;33.87;;;15.20;;
15412;SDS011;7805;49.554;7.632;2024-01-15T01:00:00;32.90;;;14.80;;
15412;SDS011;7805;49.554;7.632;2024-01-15T01:02:26;38.13;;;15.90;;
15412;SDS011;7805;49.554;7.632;2024-01-15T01:04:52;42.07;;;16.27;;
15412;SDS011;7805;49.554;7.632;2024-01-15T01:07:17;44.23;;;20.00;;
15412;SDS011;7805;49.554;7.632;2024-01-15T01:09:44;39.27;;;15.33;;
15412;SDS011;7805;49.554;7.632;2024-01-15T01:12:10;37.37;;;15.27;;
15412;SDS011;7805;49.554;7.632;2024-01-15T01:14:36;42.97;;;18.07;;
15412;SDS011;7805;49.554;7.632;2024-01-15T01:17:02;35.40;;;16.17;;
15412;SDS011;7805;49.554;7.632;2024-01-15T01:19:28;34.50;;;14.33;;
15412;SDS011;7805;49.554;7.632;2024-01-15T01:21:53;35.33;;;15.27;;
15412;SDS011;7805;49.554;7.632;2024-01-15T01:24:19;39.77;;;15.73;;
15412;SDS011;7805;49.554;7.632;2024-01-15T01:26:44;37.87;;;14.50;;
15412;SDS011;7805;49.554;7.632;2024-01-15T01:29:11;37.60;;;16.13;;
15412;SDS011;7805;49.554;7.632;2024-01-15T01:31:42;39.03;;;16.97;;
15412;SDS011;7805;49.554;7.632;2024-01-15T01:34:09;39.27;;;15.40;;
15412;SDS011;7805;49.554;7.632;2024-01-15T01:36:34;37.77;;;16.93;;
15412;SDS011;7805;49.554;7.632;2024-01-15T01:39:00;40.40;;;15.83;;
15412;SDS011;7805;49.554;7.632;2024-01-15T01:41:25;47.33;;;18.23;;
15412;SDS011;7805;49.554;7.632;2024-01-15T01:43:51;41.70;;;17.03;;
15412;SDS011;7805;49.554;7.632;2024-01-15T01:46:17;39.23;;;17.27;;
15412;SDS011;7805;49.554;7.632;2024-01-15T01:48:42;44.33;;;16.90;;
15412;SDS011;7805;49.554;7.632;2024-01-15T01:51:08;41.63;;;16.73;;
15412;SDS011;7805;49.554;7.632;2024-01-15T01:53:35;38.47;;;16.60;;
15412;SDS011;7805;49.554;7.632;2024-01-15T01:56:02;45.80;;;16.67;;
15412;SDS011;7805;49.554;7.632;2024-01-15T01:58:29;41.20;;;16.50;;
15412;SDS011;7805;49.554;7.632;2024-01-15T02:00:55;40.40;;;16.47;;
15412;SDS011;7805;49.554;7.632;2024-01-15T02:03:21;39.20;;;16.60;;
15412;SDS011;7805;49.554;7.632;2024-01-15T02:05:47;40.83;;;16.17;;
15412;SDS011;7805;49.554;7.632;2024-01-15T02:08:14;39.80;;;16.67;;
15412;SDS011;7805;49.554;7.632;2024-01-15T02:10:40;38.40;;;15.90;;
15412;SDS011;7805;49.554;7.632;2024-01-15T02:13:05;38.63;;;16.20;;
15412;SDS011;7805;49.554;7.632;2024-01-15T02:15:31;45.93;;;18.10;;
15412;SDS011;7805;49.554;7.632;2024-01-15T02:18:01;40.77;;;15.87;;
15412;SDS011;7805;49.554;7.632;2024-01-15T02:20:32;41.80;;;17.37;;
15412;SDS011;7805;49.554;7.632;2024-01-15T02:23:08;36.27;;;14.67;;
15412;SDS011;7805;49.554;7.632;2024-01-15T02:25:44;48.07;;;18.23;;
15412;SDS011;7805;49.554;7.632;2024-01-15T02:28:12;36.07;;;15.33;;
15412;SDS011;7805;49.554;7.632;2024-01-15T02:30:39;40.60;;;16.90;;
15412;SDS011;7805;49.554;7.632;2024-01-15T02:33:06;41.97;;;16.73;;
15412;SDS011;7805;49.554;7.632;2024-01-15T02:35:32;41.97;;;15.90;;
15412;SDS011;7805;49.554;7.632;2024-01-15T02:37:58;34.67;;;14.50;;
15412;SDS011;7805;49.554;7.632;2024-01-15T02:40:24;33.77;;;14.70;;
15412;SDS011;7805;49.554;7.632;2024-01-15T02:42:50;36.53;;;15.03;;
15412;SDS011;7805;49.554;7.632;2024-01-15T02:45:16;31.10;;;13.40;;
15412;SDS011;7805;49.554;7.632;2024-01-15T02:47:42;35.40;;;14.43;;
15412;SDS011;7805;49.554;7.632;2024-01-15T02:50:07;35.00;;;15.40;;
15412;SDS011;7805;49.554;7.632;2024-01-15T02:52:33;37.40;;;14.83;;
15412;SDS011;7805;49.554;7.632;2024-01-15T02:54:58;38.97;;;16.53;;
15412;SDS011;7805;49.554;7.632;2024-01-15T02:57:24;34.13;;;14.20;;
15412;SDS011;7805;49.554;7.632;2024-01-15T02:59:50;35.10;;;14.63;;
15412;SDS011;7805;49.554;7.632;2024-01-15T03:02:15;40.53;;;17.07;;
15412;SDS011;7805;49.554;7.632;2024-01-15T03:04:44;39.10;;;16.90;;
15412;SDS011;7805;49.554;7.632;2024-01-15T03:07:10;45.07;;;18.30;;
15412;SDS011;7805;49.554;7.632;2024-01-15T03:09:35;41.63;;;16.07;;
15412;SDS011;7805;49.554;7.632;2024-01-15T03:12:01;42.87;;;16.47;;
15412;SDS011;7805;49.554;7.632;2024-01-15T03:14:27;35.77;;;14.73;;
15412;SDS011;7805;49.554;7.632;2024-01-15T03:16:52;34.20;;;14.87;;
15412;SDS011;7805;49.554;7.632;2024-01-15T03:19:18;38.93;;;15.33;;
15412;SDS011;7805;49.554;7.632;2024-01-15T03:21:44;38.30;;;15.70;;
15412;SDS011;7805;49.554;7.632;2024-01-15T03:24:10;36.03;;;15.50;;
15412;SDS011;7805;49.554;7.632;2024-01-15T03:26:35;34.70;;;15.53;;
15412;SDS011;7805;49.554;7.632;2024-01-15T03:29:01;35.40;;;15.57;;
15412;SDS011;7805;49.554;7.632;2024-01-15T03:31:27;37.63;;;16.23;;
15412;SDS011;7805;49.554;7.632;2024-01-15T03:33:52;32.47;;;14.27;;
15412;SDS011;7805;49.554;7.632;2024-01-15T03:36:18;32.07;;;13.57;;
15412;SDS011;7805;49.554;7.632;2024-01-15T03:38:43;37.63;;;15.07;;
15412;SDS011;7805;49.554;7.632;2024-01-15T03:41:09;33.70;;;14.93;;
15412;SDS011;7805;49.554;7.632;2024-01-15T03:43:34;38.13;;;15.70;;
15412;SDS011;7805;49.554;7.632;2024-01-15T03:46:00;26.93;;;13.33;;
15412;SDS011;7805;49.554;7.632;2024-01-15T03:48:27;30.50;;;14.13;;
15412;SDS011;7805;49.554;7.632;2024-01-15T03:50:52;30.63;;;14.60;;
15412;SDS011;7805;49.554;7.632;2024-01-15T03:53:18;32.10;;;13.33;;
15412;SDS011;7805;49.554;7.632;2024-01-15T03:55:43;32.23;;;13.37;;
15412;SDS011;7805;49.554;7.632;2024-01-15T03:58:09;31.87;;;13.80;;
15412;SDS011;7805;49.554;7.632;2024-01-15T04:00:35;28.73;;;13.53;;
15412;SDS011;7805;49.554;7.632;2024-01-15T04:03:00;29.23;;;13.40;;
15412;SDS011;7805;49.554;7.632;2024-01-15T04:05:26;27.17;;;13.00;;
15412;SDS011;7805;49.554;7.632;2024-01-15T04:07:51;32.37;;;13.70;;
15412;SDS011;7805;49.554;7.632;2024-01-15T04:10:17;26.53;;;12.97;;
15412;SDS011;7805;49.554;7.632;2024-01-15T04:12:43;27.63;;;13.33;;
15412;SDS011;7805;49.554;7.632;2024-01-15T04:15:08;26.33;;;12.70;;
15412;SDS011;7805;49.554;7.632;2024-01-15T04:17:34;26.43;;;12.43;;
15412;SDS011;7805;49.554;7.632;2024-01-15T04:20:00;29.63;;;12.23;;
15412;SDS011;7805;49.554;7.632;2024-01-15T04:22:26;32.03;;;13.17;;
15412;SDS011;7805;49.554;7.632;2024-01-15T04:24:52;28.13;;;12.97;;
15412;SDS011;7805;49.554;7.632;2024-01-15T04:27:17;25.37;;;13.23;;
15412;SDS011;7805;49.554;7.632;2024-01-15T04:29:43;28.07;;;13.23;;
15412;SDS011;7805;49.554;7.632;2024-01-15T04:32:09;31.73;;;15.30;;
15412;SDS011;7805;49.554;7.632;2024-01-15T04:34:35;29.30;;;14.60;;
15412;SDS011;7805;49.554;7.632;2024-01-15T04:37:00;32.03;;;14.87;;
15412;SDS011;7805;49.554;7.632;2024-01-15T04:39:26;29.00;;;14.53;;
15412;SDS011;7805;49.554;7.632;2024-01-15T04:41:52;32.87;;;14.87;;
15412;SDS011;7805;49.554;7.632;2024-01-15T04:44:18;29.57;;;13.97;;
15412;SDS011;7805;49.554;7.632;2024-01-15T04:46:43;30.63;;;15.27;;
15412;SDS011;7805;49.554;7.632;2024-01-15T04:49:09;31.17;;;13.93;;
15412;SDS011;7805;49.554;7.632;2024-01-15T04:51:35;32.03;;;14.37;;
15412;SDS011;7805;49.554;7.632;2024-01-15T04:54:01;31.33;;;15.03;;
15412;SDS011;7805;49.554;7.632;2024-01-15T04:56:26;31.37;;;14.40;;
15412;SDS011;7805;49.554;7.632;2024-01-15T04:58:52;33.07;;;15.20;;
15412;SDS011;7805;49.554;7.632;2024-01-15T05:01:17;30.23;;;14.13;;
15412;SDS011;7805;49.554;7.632;2024-01-15T05:03:43;31.87;;;15.60;;
15412;SDS011;7805;49.554;7.632;2024-01-15T05:06:09;31.03;;;13.03;;
15412;SDS011;7805;49.554;7.632;2024-01-15T05:08:34;29.87;;;15.47;;
15412;SDS011;7805;49.554;7.632;2024-01-15T05:11:00;32.63;;;15.53;;
15412;SDS011;7805;49.554;7.632;2024-01-15T05:13:25;35.63;;;16.13;;
15412;SDS011;7805;49.554;7.632;2024-01-15T05:15:52;34.03;;;15.67;;
15412;SDS011;7805;49.554;7.632;2024-01-15T05:18:17;35.10;;;15.40;;
15412;SDS011;7805;49.554;7.632;2024-01-15T05:20:43;36.63;;;16.57;;
15412;SDS011;7805;49.554;7.632;2024-01-15T05:23:09;37.60;;;17.03;;
15412;SDS011;7805;49.554;7.632;2024-01-15T05:25:34;35.17;;;15.77;;
15412;SDS011;7805;49.554;7.632;2024-01-15T05:28:00;34.53;;;16.37;;
15412;SDS011;7805;49.554;7.632;2024-01-15T05:30:26;35.90;;;16.43;;
15412;SDS011;7805;49.554;7.632;2024-01-15T05:32:51;32.30;;;14.70;;
15412;SDS011;7805;49.554;7.632;2024-01-15T05:35:17;30.67;;;15.50;;
15412;SDS011;7805;49.554;7.632;2024-01-15T05:37:43;34.00;;;16.37;;
15412;SDS011;7805;49.554;7.632;2024-01-15T05:40:10;30.57;;;15.47;;
15412;SDS011;7805;49.554;7.632;2024-01-15T05:42:37;33.37;;;15.63;;
15412;SDS011;7805;49.554;7.632;2024-01-15T05:45:03;34.93;;;16.77;;
15412;SDS011;7805;49.554;7.632;2024-01-15T05:47:30;37.70;;;18.47;;
15412;SDS011;7805;49.554;7.632;2024-01-15T05:49:56;33.33;;;15.57;;
15412;SDS011;7805;49.554;7.632;2024-01-15T05:52:22;35.70;;;17.40;;
15412;SDS011;7805;49.554;7.632;2024-01-15T05:54:48;33.63;;;15.80;;
15412;SDS011;7805;49.554;7.632;2024-01-15T05:57:14;29.67;;;15.70;;
15412;SDS011;7805;49.554;7.632;2024-01-15T05:59:40;35.03;;;15.73;;
15412;SDS011;7805;49.554;7.632;2024-01-15T06:02:06;38.43;;;17.93;;
15412;SDS011;7805;49.554;7.632;2024-01-15T06:04:31;33.23;;;18.33;;
15412;SDS011;7805;49.554;7.632;2024-01-15T06:06:57;35.40;;;15.93;;
15412;SDS011;7805;49.554;7.632;2024-01-15T06:09:22;34.63;;;16.33;;
15412;SDS011;7805;49.554;7.632;2024-01-15T06:11:48;34.70;;;16.63;;
15412;SDS011;7805;49.554;7.632;2024-01-15T06:14:13;33.97;;;15.53;;
15412;SDS011;7805;49.554;7.632;2024-01-15T06:16:39;30.73;;;15.17;;
15412;SDS011;7805;49.554;7.632;2024-01-15T06:19:04;31.97;;;15.60;;
15412;SDS011;7805;49.554;7.632;2024-01-15T06:21:30;31.00;;;15.50;;
15412;SDS011;7805;49.554;7.632;2024-01-15T06:23:55;34.50;;;16.20;;
15412;SDS011;7805;49.554;7.632;2024-01-15T06:26:22;34.13;;;15.20;;
15412;SDS011;7805;49.554;7.632;2024-01-15T06:28:47;29.30;;;15.77;;
15412;SDS011;7805;49.554;7.632;2024-01-15T06:31:13;28.93;;;14.23;;
15412;SDS011;7805;49.554;7.632;2024-01-15T06:33:39;31.37;;;14.17;;
15412;SDS011;7805;49.554;7.632;2024-01-15T06:36:04;33.63;;;15.93;;
15412;SDS011;7805;49.554;7.632;2024-01-15T06:38:30;31.57;;;14.20;;
15412;SDS011;7805;49.554;7.632;2024-01-15T06:40:56;29.97;;;15.03;;
15412;SDS011;7805;49.554;7.632;2024-01-15T06:43:21;29.90;;;14.83;;
15412;SDS011;7805;49.554;7.632;2024-01-15T06:45:47;26.57;;;15.27;;
15412;SDS011;7805;49.554;7.632;2024-01-15T06:48:13;28.90;;;15.40;;
15412;SDS011;7805;49.554;7.632;2024-01-15T06:50:41;31.03;;;15.53;;
15412;SDS011;7805;49.554;7.632;2024-01-15T06:53:07;27.77;;;13.90;;
15412;SDS011;7805;49.554;7.632;2024-01-15T06:55:32;32.63;;;15.30;;
15412;SDS011;7805;49.554;7.632;2024-01-15T06:57:58;26.93;;;14.60;;
15412;SDS011;7805;49.554;7.632;2024-01-15T07:00:23;26.07;;;14.13;;
15412;SDS011;7805;49.554;7.632;2024-01-15T07:02:49;28.27;;;14.90;;
15412;SDS011;7805;49.554;7.632;2024-01-15T07:05:15;28.50;;;14.70;;
15412;SDS011;7805;49.554;7.632;2024-01-15T07:07:40;25.47;;;13.33;;
15412;SDS011;7805;49.554;7.632;2024-01-15T07:10:06;27.93;;;15.10;;
15412;SDS011;7805;49.554;7.632;2024-01-15T07:12:32;31.97;;;15.03;;
15412;SDS011;7805;49.554;7.632;2024-01-15T07:14:57;29.00;;;14.67;;
15412;SDS011;7805;49.554;7.632;2024-01-15T07:17:23;28.27;;;14.47;;
15412;SDS011;7805;49.554;7.632;2024-01-15T07:19:49;27.20;;;14.13;;
15412;SDS011;7805;49.554;7.632;2024-01-15T07:22:14;29.13;;;15.43;;
15412;SDS011;7805;49.554;7.632;2024-01-15T07:24:42;29.27;;;14.63;;
15412;SDS011;7805;49.554;7.632;2024-01-15T07:27:08;28.53;;;14.97;;
15412;SDS011;7805;49.554;7.632;2024-01-15T07:29:34;27.97;;;14.53;;
15412;SDS011;7805;49.554;7.632;2024-01-15T07:32:03;32.63;;;16.20;;
15412;SDS011;7805;49.554;7.632;2024-01-15T07:34:29;29.77;;;15.67;;
15412;SDS011;7805;49.554;7.632;2024-01-15T07:36:56;31.80;;;14.60;;
15412;SDS011;7805;49.554;7.632;2024-01-15T07:39:22;30.80;;;14.80;;
15412;SDS011;7805;49.554;7.632;2024-01-15T07:41:49;28.17;;;15.33;;
15412;SDS011;7805;49.554;7.632;2024-01-15T07:44:15;29.93;;;14.97;;
15412;SDS011;7805;49.554;7.632;2024-01-15T07:46:44;28.70;;;15.23;;
15412;SDS011;7805;49.554;7.632;2024-01-15T07:49:10;28.20;;;15.23;;
15412;SDS011;7805;49.554;7.632;2024-01-15T07:51:36;28.17;;;15.17;;
15412;SDS011;7805;49.554;7.632;2024-01-15T07:54:02;24.43;;;13.60;;
15412;SDS011;7805;49.554;7.632;2024-01-15T07:56:28;28.27;;;14.90;;
15412;SDS011;7805;49.554;7.632;2024-01-15T07:58:53;27.20;;;14.67;;
15412;SDS011;7805;49.554;7.632;2024-01-15T08:01:19;28.57;;;14.83;;
15412;SDS011;7805;49.554;7.632;2024-01-15T08:03:44;29.90;;;15.47;;
15412;SDS011;7805;49.554;7.632;2024-01-15T08:06:10;25.87;;;14.73;;
15412;SDS011;7805;49.554;7.632;2024-01-15T08:08:36;28.53;;;15.60;;
15412;SDS011;7805;49.554;7.632;2024-01-15T08:11:02;29.87;;;15.70;;
15412;SDS011;7805;49.554;7.632;2024-01-15T08:13:28;26.33;;;14.40;;
15412;SDS011;7805;49.554;7.632;2024-01-15T08:15:53;28.23;;;15.90;;
15412;SDS011;7805;49.554;7.632;2024-01-15T08:18:19;27.83;;;15.67;;
15412;SDS011;7805;49.554;7.632;2024-01-15T08:20:46;27.73;;;15.23;;
15412;SDS011;7805;49.554;7.632;2024-01-15T08:23:16;29.23;;;15.27;;
15412;SDS011;7805;49.554;7.632;2024-01-15T08:25:42;29.90;;;14.93;;
15412;SDS011;7805;49.554;7.632;2024-01-15T08:28:07;28.50;;;15.37;;
15412;SDS011;7805;49.554;7.632;2024-01-15T08:30:33;28.83;;;15.47;;
15412;SDS011;7805;49.554;7.632;2024-01-15T08:32:59;32.07;;;15.40;;
15412;SDS011;7805;49.554;7.632;2024-01-15T08:35:25;29.07;;;15.37;;
15412;SDS011;7805;49.554;7.632;2024-01-15T08:37:53;28.47;;;15.40;;
15412;SDS011;7805;49.554;7.632;2024-01-15T08:40:19;27.40;;;15.03;;
15412;SDS011;7805;49.554;7.632;2024-01-15T08:42:44;27.93;;;15.00;;
15412;SDS011;7805;49.554;7.632;2024-01-15T08:45:10;26.20;;;15.67;;
15412;SDS011;7805;49.554;7.632;2024-01-15T08:47:36;26.70;;;14.47;;
15412;SDS011;7805;49.554;7.632;2024-01-15T08:50:02;27.80;;;14.83;;
15412;SDS011;7805;49.554;7.632;2024-01-15T08:52:29;27.93;;;15.13;;
15412;SDS011;7805;49.554;7.632;2024-01-15T08:54:56;30.60;;;15.87;;
15412;SDS011;7805;49.554;7.632;2024-01-15T08:57:22;26.57;;;14.10;;
15412;SDS011;7805;49.554;7.632;2024-01-15T08:59:47;28.50;;;15.30;;
15412;SDS011;7805;49.554;7.632;2024-01-15T09:02:13;27.30;;;15.37;;
15412;SDS011;7805;49.554;7.632;2024-01-15T09:04:39;28.40;;;15.40;;
15412;SDS011;7805;49.554;7.632;2024-01-15T09:07:04;25.10;;;14.50;;
15412;SDS011;7805;49.554;7.632;2024-01-15T09:09:30;28.67;;;14.57;;
15412;SDS011;7805;49.554;7.632;2024-01-15T09:11:55;25.07;;;14.00;;
15412;SDS011;7805;49.554;7.632;2024-01-15T09:14:21;24.43;;;13.57;;
15412;SDS011;7805;49.554;7.632;2024-01-15T09:16:49;23.00;;;13.10;;
15412;SDS011;7805;49.554;7.632;2024-01-15T09:19:15;27.93;;;13.70;;
15412;SDS011;7805;49.554;7.632;2024-01-15T09:21:40;25.83;;;14.10;;
15412;SDS011;7805;49.554;7.632;2024-01-15T09:24:06;22.60;;;13.20;;
15412;SDS011;7805;49.554;7.632;2024-01-15T09:26:31;24.10;;;13.50;;
15412;SDS011;7805;49.554;7.632;2024-01-15T09:28:57;25.17;;;13.70;;
15412;SDS011;7805;49.554;7.632;2024-01-15T09:31:23;22.30;;;13.77;;
15412;SDS011;7805;49.554;7.632;2024-01-15T09:33:49;23.90;;;13.30;;
15412;SDS011;7805;49.554;7.632;2024-01-15T09:36:17;24.03;;;12.83;;
15412;SDS011;7805;49.554;7.632;2024-01-15T09:38:42;23.60;;;11.93;;
15412;SDS011;7805;49.554;7.632;2024-01-15T09:41:08;22.00;;;12.37;;
15412;SDS011;7805;49.554;7.632;2024-01-15T09:43:34;26.00;;;14.40;;
15412;SDS011;7805;49.554;7.632;2024-01-15T09:46:02;22.70;;;12.50;;
15412;SDS011;7805;49.554;7.632;2024-01-15T09:48:28;25.13;;;13.70;;
15412;SDS011;7805;49.554;7.632;2024-01-15T09:50:54;25.13;;;13.33;;
15412;SDS011;7805;49.554;7.632;2024-01-15T09:53:20;20.73;;;12.47;;
15412;SDS011;7805;49.554;7.632;2024-01-15T09:55:46;23.87;;;13.40;;
15412;SDS011;7805;49.554;7.632;2024-01-15T09:58:14;23.30;;;13.47;;
15412;SDS011;7805;49.554;7.632;2024-01-15T10:00:40;21.40;;;12.43;;
15412;SDS011;7805;49.554;7.632;2024-01-15T10:03:08;23.67;;;13.43;;
15412;SDS011;7805;49.554;7.632;2024-01-15T10:05:36;24.20;;;12.07;;
15412;SDS011;7805;49.554;7.632;2024-01-15T10:08:02;23.40;;;13.90;;
15412;SDS011;7805;49.554;7.632;2024-01-15T10:10:29;23.33;;;12.63;;
15412;SDS011;7805;49.554;7.632;2024-01-15T10:12:56;25.77;;;14.43;;
15412;SDS011;7805;49.554;7.632;2024-01-15T10:15:23;26.27;;;13.07;;
15412;SDS011;7805;49.554;7.632;2024-01-15T10:17:51;27.40;;;13.97;;
15412;SDS011;7805;49.554;7.632;2024-01-15T10:20:16;26.93;;;14.27;;
15412;SDS011;7805;49.554;7.632;2024-01-15T10:22:42;23.10;;;13.40;;
15412;SDS011;7805;49.554;7.632;2024-01-15T10:25:14;29.63;;;14.60;;
15412;SDS011;7805;49.554;7.632;2024-01-15T10:27:41;22.47;;;12.80;;
15412;SDS011;7805;49.554;7.632;2024-01-15T10:30:08;22.27;;;12.63;;
15412;SDS011;7805;49.554;7.632;2024-01-15T10:32:34;19.80;;;12.57;;
15412;SDS011;7805;49.554;7.632;2024-01-15T10:35:00;22.50;;;12.30;;
15412;SDS011;7805;49.554;7.632;2024-01-15T10:37:25;25.33;;;13.30;;
15412;SDS011;7805;49.554;7.632;2024-01-15T10:39:52;23.47;;;13.67;;
15412;SDS011;7805;49.554;7.632;2024-01-15T10:42:18;21.50;;;12.63;;
15412;SDS011;7805;49.554;7.632;2024-01-15T10:44:43;21.33;;;11.47;;
15412;SDS011;7805;49.554;7.632;2024-01-15T10:47:12;20.63;;;12.43;;
15412;SDS011;7805;49.554;7.632;2024-01-15T10:49:38;19.67;;;10.93;;
15412;SDS011;7805;49.554;7.632;2024-01-15T10:52:04;20.37;;;11.60;;
15412;SDS011;7805;49.554;7.632;2024-01-15T10:54:31;20.17;;;12.50;;
15412;SDS011;7805;49.554;7.632;2024-01-15T10:56:57;16.90;;;10.77;;
15412;SDS011;7805;49.554;7.632;2024-01-15T10:59:22;18.40;;;11.03;;
15412;SDS011;7805;49.554;7.632;2024-01-15T11:01:48;19.10;;;10.10;;
15412;SDS011;7805;49.554;7.632;2024-01-15T11:04:15;19.53;;;11.33;;
15412;SDS011;7805;49.554;7.632;2024-01-15T11:06:45;18.00;;;11.30;;
15412;SDS011;7805;49.554;7.632;2024-01-15T11:09:13;15.90;;;10.00;;
15412;SDS011;7805;49.554;7.632;2024-01-15T11:11:40;16.53;;;9.83;;
15412;SDS011;7805;49.554;7.632;2024-01-15T11:14:08;18.03;;;11.23;;
15412;SDS011;7805;49.554;7.632;2024-01-15T11:19:19;18.40;;;10.27;;
15412;SDS011;7805;49.554;7.632;2024-01-15T11:21:45;16.97;;;9.97;;
15412;SDS011;7805;49.554;7.632;2024-01-15T11:24:10;17.67;;;10.07;;
15412;SDS011;7805;49.554;7.632;2024-01-15T11:26:56;17.07;;;9.83;;
15412;SDS011;7805;49.554;7.632;2024-01-15T11:29:29;14.90;;;9.23;;
15412;SDS011;7805;49.554;7.632;2024-01-15T11:32:03;15.23;;;9.13;;
15412;SDS011;7805;49.554;7.632;2024-01-15T11:37:23;14.07;;;9.20;;
15412;SDS011;7805;49.554;7.632;2024-01-15T11:39:50;15.67;;;9.53;;
15412;SDS011;7805;49.554;7.632;2024-01-15T11:42:17;18.07;;;10.60;;
15412;SDS011;7805;49.554;7.632;2024-01-15T11:44:44;15.03;;;9.70;;
15412;SDS011;7805;49.554;7.632;2024-01-15T11:47:11;17.10;;;10.03;;
15412;SDS011;7805;49.554;7.632;2024-01-15T11:52:33;15.70;;;9.80;;
15412;SDS011;7805;49.554;7.632;2024-01-15T11:57:34;14.93;;;9.57;;
15412;SDS011;7805;49.554;7.632;2024-01-15T12:00:08;15.93;;;9.90;;
15412;SDS011;7805;49.554;7.632;2024-01-15T12:02:35;16.17;;;9.43;;
15412;SDS011;7805;49.554;7.632;2024-01-15T12:05:00;10.27;;;7.80;;
15412;SDS011;7805;49.554;7.632;2024-01-15T12:07:26;13.23;;;8.93;;
15412;SDS011;7805;49.554;7.632;2024-01-15T12:09:52;15.40;;;10.13;;
15412;SDS011;7805;49.554;7.632;2024-01-15T12:12:21;16.93;;;10.43;;
15412;SDS011;7805;49.554;7.632;2024-01-15T12:14:54;15.77;;;10.10;;
15412;SDS011;7805;49.554;7.632;2024-01-15T12:17:19;16.60;;;9.77;;
15412;SDS011;7805;49.554;7.632;2024-01-15T12:19:45;16.77;;;10.20;;
15412;SDS011;7805;49.554;7.632;2024-01-15T12:22:11;15.67;;;9.77;;
15412;SDS011;7805;49.554;7.632;2024-01-15T12:24:36;15.40;;;9.33;;
15412;SDS011;7805;49.554;7.632;2024-01-15T12:27:02;15.63;;;9.27;;
15412;SDS011;7805;49.554;7.632;2024-01-15T12:29:28;14.20;;;9.17;;
15412;SDS011;7805;49.554;7.632;2024-01-15T12:31:53;13.97;;;9.50;;
15412;SDS011;7805;49.554;7.632;2024-01-15T12:34:20;16.77;;;10.53;;
15412;SDS011;7805;49.554;7.632;2024-01-15T12:36:48;15.70;;;9.47;;
15412;SDS011;7805;49.554;7.632;2024-01-15T12:39:15;16.40;;;10.33;;
15412;SDS011;7805;49.554;7.632;2024-01-15T12:41:40;15.27;;;10.37;;
15412;SDS011;7805;49.554;7.632;2024-01-15T12:44:06;17.90;;;9.90;;
15412;SDS011;7805;49.554;7.632;2024-01-15T12:46:32;15.00;;;9.00;;
15412;SDS011;7805;49.554;7.632;2024-01-15T12:48:57;16.33;;;10.17;;
15412;SDS011;7805;49.554;7.632;2024-01-15T12:51:26;15.00;;;9.73;;
15412;SDS011;7805;49.554;7.632;2024-01-15T12:53:52;19.57;;;10.63;;
15412;SDS011;7805;49.554;7.632;2024-01-15T12:56:18;16.23;;;9.97;;
15412;SDS011;7805;49.554;7.632;2024-01-15T12:58:44;14.77;;;9.67;;
15412;SDS011;7805;49.554;7.632;2024-01-15T13:01:09;15.90;;;10.63;;
15412;SDS011;7805;49.554;7.632;2024-01-15T13:03:35;14.93;;;9.17;;
15412;SDS011;7805;49.554;7.632;2024-01-15T13:06:01;16.47;;;10.13;;
15412;SDS011;7805;49.554;7.632;2024-01-15T13:08:26;14.93;;;9.30;;
15412;SDS011;7805;49.554;7.632;2024-01-15T13:10:54;14.57;;;9.93;;
15412;SDS011;7805;49.554;7.632;2024-01-15T13:13:22;15.07;;;9.53;;
15412;SDS011;7805;49.554;7.632;2024-01-15T13:15:47;17.67;;;10.57;;
15412;SDS011;7805;49.554;7.632;2024-01-15T13:18:13;14.40;;;9.57;;
15412;SDS011;7805;49.554;7.632;2024-01-15T13:20:38;12.27;;;8.80;;
15412;SDS011;7805;49.554;7.632;2024-01-15T13:23:04;13.90;;;9.23;;
15412;SDS011;7805;49.554;7.632;2024-01-15T13:25:30;15.47;;;8.87;;
15412;SDS011;7805;49.554;7.632;2024-01-15T13:27:56;13.90;;;9.37;;
15412;SDS011;7805;49.554;7.632;2024-01-15T13:30:21;14.97;;;8.43;;
15412;SDS011;7805;49.554;7.632;2024-01-15T13:32:47;12.83;;;9.80;;
15412;SDS011;7805;49.554;7.632;2024-01-15T13:35:12;15.10;;;10.57;;
15412;SDS011;7805;49.554;7.632;2024-01-15T13:37:38;10.50;;;8.50;;
15412;SDS011;7805;49.554;7.632;2024-01-15T13:40:06;15.33;;;9.90;;
15412;SDS011;7805;49.554;7.632;2024-01-15T13:42:34;13.03;;;8.53;;
15412;SDS011;7805;49.554;7.632;2024-01-15T13:45:03;13.87;;;9.07;;
15412;SDS011;7805;49.554;7.632;2024-01-15T13:47:31;13.77;;;8.77;;
15412;SDS011;7805;49.554;7.632;2024-01-15T13:49:56;11.20;;;7.10;;
15412;SDS011;7805;49.554;7.632;2024-01-15T13:52:22;12.87;;;7.63;;
15412;SDS011;7805;49.554;7.632;2024-01-15T13:54:48;9.70;;;7.10;;
15412;SDS011;7805;49.554;7.632;2024-01-15T13:57:13;9.30;;;6.63;;
15412;SDS011;7805;49.554;7.632;2024-01-15T13:59:39;9.60;;;6.63;;
15412;SDS011;7805;49.554;7.632;2024-01-15T14:02:05;9.77;;;6.80;;
15412;SDS011;7805;49.554;7.632;2024-01-15T14:04:30;9.03;;;6.70;;
15412;SDS011;7805;49.554;7.632;2024-01-15T14:06:56;10.87;;;7.00;;
15412;SDS011;7805;49.554;7.632;2024-01-15T14:09:21;7.67;;;5.93;;
15412;SDS011;7805;49.554;7.632;2024-01-15T14:11:47;8.77;;;5.97;;
15412;SDS011;7805;49.554;7.632;2024-01-15T14:14:14;9.40;;;6.23;;
15412;SDS011;7805;49.554;7.632;2024-01-15T14:16:39;9.63;;;5.73;;
15412;SDS011;7805;49.554;7.632;2024-01-15T14:19:05;11.33;;;6.57;;
15412;SDS011;7805;49.554;7.632;2024-01-15T14:21:34;13.57;;;8.00;;
15412;SDS011;7805;49.554;7.632;2024-01-15T14:24:00;12.10;;;8.13;;
15412;SDS011;7805;49.554;7.632;2024-01-15T14:26:26;10.37;;;6.43;;
15412;SDS011;7805;49.554;7.632;2024-01-15T14:28:52;14.30;;;9.57;;
15412;SDS011;7805;49.554;7.632;2024-01-15T14:31:19;13.40;;;8.77;;
15412;SDS011;7805;49.554;7.632;2024-01-15T14:33:46;9.70;;;6.00;;
15412;SDS011;7805;49.554;7.632;2024-01-15T14:36:11;12.47;;;7.80;;
15412;SDS011;7805;49.554;7.632;2024-01-15T14:38:37;11.23;;;7.87;;
15412;SDS011;7805;49.554;7.632;2024-01-15T14:41:03;9.03;;;5.50;;
15412;SDS011;7805;49.554;7.632;2024-01-15T14:43:29;10.17;;;5.63;;